Dunwoody, GA (30338)

2:50 AM EST op 30 januari 2015 (GMT -0500)
Wyntercreek/Meadowcreek | Change Station
CLOSE
Current Station
Persoonlijk weerstation
Location: Dunwoody, GA
Geometrische hoogte: 1072 ft
Nabije weerstations

Hoogte 1072 ft 33.95 °N, 84.33 °W | Updated 3 seconds ago

Geheel bewolkt
Geheel bewolkt
42.3 °F
Voelt als 36 °F
N
11.0
Wind Variabel Wind van NW
Gusts 18.0 mijl/u

Vandaag
Hoog -- | Laag -- °F
--% Kans op neerslag
Gisteren
Hoog -- | Laag -- °F
Precip. -- inches
7:35 AM 6:05 PM
Wassende maan, 81% visible
Druk 30.14 inches
Zicht 8.0 mijlen
Wolken Merendeels bewolkt 2300 ft
Geheel bewolkt 3300 ft
Gevoelstemperatuur 36 °F
Dauwpunt 19 °F
Vochtigheid 45%
Neerslag -999.00 inches
Dikte sneeuw Niet beschikbaar.
UV 0 van de 12
Pollen 2.70 van de 12
Luchtkwaliteit Niet beschikbaar.
Flu Activity Niet beschikbaar.
SPECI KPDK 300713Z AUTO 33018G24KT 8SM BKN023 OVC033 07/02 A3014 RMK AO2

More Conditions Fewer Conditions

Druk 30.14 inches
Zicht 8.0 mijlen
Wolken Merendeels bewolkt 2300 ft
Geheel bewolkt 3300 ft
Gevoelstemperatuur 36 °F
Dauwpunt 19 °F
Vochtigheid 45%
Neerslag -999.00 inches
Dikte sneeuw Niet beschikbaar.
UV 0 van de 12
Pollen 2.70 van de 12
Luchtkwaliteit Niet beschikbaar.
Flu Activity Niet beschikbaar.
SPECI KPDK 300713Z AUTO 33018G24KT 8SM BKN023 OVC033 07/02 A3014 RMK AO2

More Conditions Fewer Conditions

10-Day Weather Forecast

Almanac

Astronomie

Jan. 30, 2015 Opkomst Ondergang
Werkelijke tijd
Burgerlijke schemering
Nautische schemering
Astronomische schemering
Maan
Golflengte van het zichtbare licht
Daglengte
Tomorrow will be .
, % of the Moon is Illuminated

Extremen vandaag

State Highs State Lows

Community

WunderPhotos

Upload Photos

1,791,726 foto’s ge-upload!

WunderBlogs® & News

Nearby

Luchtkwaliteit

  Luchtkwaliteit LK-index Verontreinigende stof
Not available.

Dikte sneeuw

Station Depth Geometrische hoogte

Aardbevingen

Stad Distance Mag. Time & Date
Minimum magnitude displayed is 2.5.

Watertemperatuur langs de kust

Plaats Temperatuur

Nabije weerstations